Time;durP1;ratioP1;P1;durP2;ratioP2;P2;SDS_P1;SDS_P2;PMS_P1;PMS_P2;Temp;Humidity;BMP_temperature;BMP_pressure;BME280_temperature;BME280_humidity;BME280_pressure;Samples;Min_cycle;Max_cycle;Signal;HPM_P1;HPM_P2
2021/01/03 00:03:22;;;;;;;27.50;15.40;;;;;;;0.84;100.00;97825.70;3761187;79;43378;-19
2021/01/03 00:08:32;;;;;;;29.43;15.37;;;;;;;0.93;100.00;97825.50;3723769;79;44052;-20
2021/01/03 00:13:38;;;;;;;30.63;15.57;;;;;;;0.90;100.00;97823.91;3756227;79;44030;-19
2021/01/03 00:18:45;;;;;;;29.27;16.27;;;;;;;0.93;100.00;97820.20;3722517;79;43043;-19
2021/01/03 00:23:55;;;;;;;31.87;15.90;;;;;;;0.85;100.00;97834.49;3724948;79;43346;-19
2021/01/03 00:29:02;;;;;;;32.20;17.17;;;;;;;0.84;100.00;97834.98;3668119;80;43463;-19
2021/01/03 00:34:09;;;;;;;27.70;15.50;;;;;;;0.90;100.00;97828.37;3779584;77;44200;-19
2021/01/03 00:39:17;;;;;;;29.67;15.30;;;;;;;0.83;100.00;97840.38;3773412;77;43369;-19
2021/01/03 00:44:24;;;;;;;31.83;16.87;;;;;;;0.79;100.00;97854.36;3700011;80;44039;-19
2021/01/03 00:49:33;;;;;;;32.83;16.93;;;;;;;0.73;100.00;97842.89;3720047;79;43441;-19
2021/01/03 00:54:40;;;;;;;34.73;17.73;;;;;;;0.72;100.00;97837.22;3717480;79;44034;-19
2021/01/03 00:59:47;;;;;;;35.43;18.57;;;;;;;0.70;100.00;97836.48;3677349;80;43150;-19
2021/01/03 01:04:53;;;;;;;33.40;18.23;;;;;;;0.61;100.00;97824.28;3826813;77;44106;-19
2021/01/03 01:09:59;;;;;;;39.30;19.63;;;;;;;0.67;100.00;97819.47;3778992;77;43897;-19
2021/01/03 01:15:07;;;;;;;44.23;21.07;;;;;;;0.69;100.00;97822.40;3780121;78;44003;-19
2021/01/03 01:20:15;;;;;;;42.57;21.30;;;;;;;0.68;100.00;97819.38;3783541;77;44057;-19
2021/01/03 01:25:24;;;;;;;45.47;21.13;;;;;;;0.63;100.00;97816.70;3754414;78;44078;-19
2021/01/03 01:30:32;;;;;;;46.53;22.67;;;;;;;0.60;100.00;97808.02;3803133;77;43999;-19
2021/01/03 01:35:38;;;;;;;46.47;23.30;;;;;;;0.60;100.00;97799.20;3768010;78;43451;-19
2021/01/03 01:40:44;;;;;;;45.23;22.07;;;;;;;0.49;100.00;97800.47;3702163;79;44420;-19
2021/01/03 01:45:50;;;;;;;47.93;23.50;;;;;;;0.57;100.00;97796.30;3705965;80;43621;-19
2021/01/03 01:50:59;;;;;;;50.27;24.33;;;;;;;0.58;100.00;97792.70;3740343;79;44254;-19
2021/01/03 01:56:08;;;;;;;44.87;21.87;;;;;;;0.52;100.00;97785.67;3758270;78;44108;-18
2021/01/03 02:01:17;;;;;;;50.93;24.70;;;;;;;0.56;100.00;97792.45;3717172;79;44061;-19
2021/01/03 02:06:27;;;;;;;46.23;22.43;;;;;;;0.44;100.00;97784.91;3695003;80;42976;-19
2021/01/03 02:11:33;;;;;;;45.77;22.33;;;;;;;0.40;100.00;97782.14;3729144;79;44109;-19
2021/01/03 02:16:41;;;;;;;50.17;23.03;;;;;;;0.41;100.00;97784.67;3692851;80;44070;-19
2021/01/03 02:21:50;;;;;;;50.53;24.20;;;;;;;0.33;100.00;97780.42;3735589;79;44415;-19
2021/01/03 02:27:00;;;;;;;45.70;22.43;;;;;;;0.56;100.00;97780.03;3692757;80;44444;-19
2021/01/03 02:32:07;;;;;;;46.73;22.97;;;;;;;0.63;100.00;97768.49;3685886;80;44006;-19
2021/01/03 02:37:17;;;;;;;43.40;21.33;;;;;;;0.67;100.00;97765.98;3655428;81;43478;-19
2021/01/03 02:42:26;;;;;;;40.73;20.37;;;;;;;0.72;100.00;97761.66;3704304;79;44087;-19
2021/01/03 02:47:34;;;;;;;40.43;20.37;;;;;;;0.63;100.00;97762.36;3690584;79;43335;-19
2021/01/03 02:52:44;;;;;;;37.47;19.40;;;;;;;0.53;100.00;97756.89;3648375;80;44546;-19
2021/01/03 02:57:50;;;;;;;38.17;19.30;;;;;;;0.55;100.00;97757.13;3630946;80;43717;-19
2021/01/03 03:02:56;;;;;;;35.30;18.50;;;;;;;0.58;100.00;97755.59;3751490;79;43696;-19
2021/01/03 03:08:02;;;;;;;33.23;17.03;;;;;;;0.57;100.00;97747.27;3715913;79;43483;-19
2021/01/03 03:13:07;;;;;;;28.57;16.13;;;;;;;0.49;100.00;97741.70;3697616;79;44434;-19
2021/01/03 03:18:13;;;;;;;31.00;16.60;;;;;;;0.53;100.00;97741.82;3707679;79;44023;-19
2021/01/03 03:23:19;;;;;;;31.53;15.63;;;;;;;0.48;100.00;97729.87;3744058;78;44128;-19
2021/01/03 03:28:25;;;;;;;30.27;16.33;;;;;;;0.44;100.00;97735.42;3697692;79;44010;-19
2021/01/03 03:33:31;;;;;;;29.23;15.43;;;;;;;0.45;100.00;97730.50;3767989;79;43650;-20
2021/01/03 03:38:37;;;;;;;28.30;14.20;;;;;;;0.38;100.00;97719.97;3733697;79;43423;-19
2021/01/03 03:43:44;;;;;;;30.47;15.60;;;;;;;0.39;100.00;97713.71;3705117;79;43767;-20
2021/01/03 03:48:50;;;;;;;27.67;14.40;;;;;;;0.31;100.00;97717.42;3720092;79;43700;-20
2021/01/03 03:53:56;;;;;;;26.40;13.90;;;;;;;0.43;100.00;97709.02;3720998;79;44129;-20
2021/01/03 03:59:01;;;;;;;24.27;13.47;;;;;;;0.38;100.00;97705.89;3717517;79;43459;-19
2021/01/03 04:04:07;;;;;;;25.00;14.23;;;;;;;0.32;100.00;97706.33;3767951;79;44094;-20
2021/01/03 04:09:14;;;;;;;24.40;13.40;;;;;;;0.29;100.00;97698.97;3740642;79;42691;-20
2021/01/03 04:14:23;;;;;;;24.33;13.43;;;;;;;0.20;100.00;97695.69;3761076;78;43915;-20
2021/01/03 04:19:29;;;;;;;24.97;14.10;;;;;;;0.33;100.00;97696.96;3726217;79;44109;-20
2021/01/03 04:24:35;;;;;;;24.80;13.17;;;;;;;0.25;100.00;97690.91;3685747;79;43705;-20
2021/01/03 04:29:42;;;;;;;23.27;12.47;;;;;;;0.19;100.00;97690.02;3714190;79;43877;-20
2021/01/03 04:34:48;;;;;;;21.60;12.30;;;;;;;0.23;100.00;97695.47;3635214;81;44065;-19
2021/01/03 04:39:54;;;;;;;21.30;10.93;;;;;;;0.19;100.00;97696.64;3647795;80;44055;-20
2021/01/03 04:45:03;;;;;;;19.37;11.10;;;;;;;0.20;100.00;97697.50;3656667;81;43350;-20
2021/01/03 04:50:13;;;;;;;19.33;11.37;;;;;;;0.17;100.00;97691.97;3721944;79;43452;-20
2021/01/03 04:55:22;;;;;;;16.90;10.00;;;;;;;0.17;100.00;97697.27;3705682;79;43673;-20
2021/01/03 05:00:31;;;;;;;14.70;8.87;;;;;;;0.07;100.00;97700.20;3725687;79;44521;-20
2021/01/03 05:05:42;;;;;;;18.70;10.27;;;;;;;0.10;100.00;97695.55;3751061;79;43720;-20
2021/01/03 05:10:48;;;;;;;19.67;10.20;;;;;;;0.12;100.00;97696.74;3695029;79;43974;-19
2021/01/03 05:15:54;;;;;;;16.87;9.37;;;;;;;-0.01;100.00;97687.05;3699569;79;43711;-19
2021/01/03 05:21:06;;;;;;;16.90;9.23;;;;;;;0.02;100.00;97689.12;3735441;79;43330;-19
2021/01/03 05:26:12;;;;;;;16.70;9.77;;;;;;;0.06;100.00;97692.75;3703994;79;44013;-19
2021/01/03 05:31:21;;;;;;;16.07;9.93;;;;;;;0.06;100.00;97691.92;3634920;80;44097;-19
2021/01/03 05:36:39;;;;;;;19.00;10.20;;;;;;;-0.06;100.00;97693.16;3686121;80;44157;-17
2021/01/03 05:42:24;;;;;;;17.43;10.03;;;;;;;-0.34;100.00;97685.92;3754844;78;44059;-17
2021/01/03 05:47:34;;;;;;;16.80;9.83;;;;;;;-0.48;100.00;97690.03;3734526;78;43689;-18
2021/01/03 05:52:47;;;;;;;21.97;11.03;;;;;;;-0.58;100.00;97679.73;3727222;79;43425;-18
2021/01/03 05:58:08;;;;;;;18.20;10.57;;;;;;;-0.60;100.00;97688.26;3699370;79;43369;-18
2021/01/03 06:03:21;;;;;;;19.93;11.10;;;;;;;-0.69;100.00;97689.28;3713058;79;44524;-18
2021/01/03 06:08:30;;;;;;;20.67;11.50;;;;;;;-0.72;100.00;97696.11;3700702;79;44087;-17
2021/01/03 06:13:45;;;;;;;18.67;10.47;;;;;;;-0.76;100.00;97694.63;3754509;79;43965;-18
2021/01/03 06:18:53;;;;;;;19.17;11.07;;;;;;;-0.84;100.00;97695.19;3730082;79;44587;-18
2021/01/03 06:24:12;;;;;;;20.00;11.03;;;;;;;-0.87;100.00;97688.78;3722056;79;43693;-18
2021/01/03 06:29:24;;;;;;;22.50;10.43;;;;;;;-0.88;100.00;97695.02;3657981;80;43722;-17
2021/01/03 06:34:33;;;;;;;18.47;10.23;;;;;;;-0.86;100.00;97702.84;3655832;81;43414;-18
2021/01/03 06:39:47;;;;;;;19.07;10.50;;;;;;;-0.84;100.00;97696.97;3688008;79;44542;-18
2021/01/03 06:45:17;;;;;;;16.93;9.43;;;;;;;-0.88;100.00;97697.67;3688873;80;44050;-18
2021/01/03 06:50:45;;;;;;;17.53;10.00;;;;;;;-0.90;100.00;97694.28;3668230;79;43686;-18
2021/01/03 06:56:12;;;;;;;17.13;9.87;;;;;;;-0.87;100.00;97704.65;3666646;80;44177;-18
2021/01/03 07:01:21;;;;;;;17.90;9.63;;;;;;;-0.92;100.00;97701.47;3705590;79;44071;-18
2021/01/03 07:06:34;;;;;;;13.77;8.83;;;;;;;-0.89;100.00;97705.23;3696056;80;43748;-17
2021/01/03 07:11:47;;;;;;;14.80;8.77;;;;;;;-0.91;100.00;97704.48;3695848;79;44126;-18
2021/01/03 07:16:56;;;;;;;14.60;8.50;;;;;;;-0.88;100.00;97702.13;3680175;80;43309;-17
2021/01/03 07:22:06;;;;;;;16.97;9.17;;;;;;;-0.91;100.00;97698.36;3813159;77;43918;-18
2021/01/03 07:27:45;;;;;;;13.23;8.10;;;;;;;-0.95;100.00;97699.06;3768158;79;43654;-17
2021/01/03 07:32:57;;;;;;;13.77;8.17;;;;;;;-0.93;100.00;97702.42;3769862;77;43978;-18
2021/01/03 07:38:40;;;;;;;16.03;8.40;;;;;;;-0.95;100.00;97699.06;3771943;77;43345;-18
2021/01/03 07:43:58;;;;;;;14.57;8.10;;;;;;;-0.91;100.00;97704.97;3575837;82;43729;-18
2021/01/03 07:49:24;;;;;;;14.93;7.77;;;;;;;-0.90;100.00;97702.21;3691854;79;43158;-18
2021/01/03 07:54:30;;;;;;;16.83;7.73;;;;;;;-0.91;100.00;97704.97;3759005;79;43674;-18
2021/01/03 07:59:36;;;;;;;16.63;8.70;;;;;;;-0.94;100.00;97706.01;3749649;79;44724;-18
2021/01/03 08:04:41;;;;;;;14.50;8.27;;;;;;;-0.92;100.00;97713.37;3763585;79;43088;-18
2021/01/03 08:09:47;;;;;;;14.57;8.57;;;;;;;-0.94;100.00;97712.63;3707783;79;43689;-18
2021/01/03 08:14:58;;;;;;;16.20;9.03;;;;;;;-0.98;100.00;97711.99;3766941;79;44022;-18
2021/01/03 08:20:10;;;;;;;13.97;8.33;;;;;;;-0.94;100.00;97716.59;3734779;79;44741;-18
2021/01/03 08:25:19;;;;;;;14.60;8.43;;;;;;;-0.99;100.00;97720.05;3711321;79;44009;-19
2021/01/03 08:30:27;;;;;;;14.93;8.27;;;;;;;-0.90;100.00;97713.28;3675048;80;43267;-18
2021/01/03 08:35:33;;;;;;;14.60;9.03;;;;;;;-0.92;100.00;97710.72;3699673;79;44076;-18
2021/01/03 08:40:43;;;;;;;15.00;8.83;;;;;;;-0.89;100.00;97712.33;3685430;80;44131;-18
2021/01/03 08:45:51;;;;;;;13.87;8.03;;;;;;;-0.86;100.00;97706.80;3810412;77;43445;-18
2021/01/03 08:51:07;;;;;;;14.50;8.57;;;;;;;-0.78;100.00;97717.71;3807573;77;44034;-18
2021/01/03 08:56:17;;;;;;;13.80;7.67;;;;;;;-0.67;100.00;97727.06;3701738;79;44128;-18
2021/01/03 09:01:26;;;;;;;13.37;7.43;;;;;;;-0.61;100.00;97724.46;3691270;80;43082;-18
2021/01/03 09:06:32;;;;;;;11.43;7.37;;;;;;;-0.59;100.00;97723.02;3817948;77;43993;-18
2021/01/03 09:11:41;;;;;;;12.67;7.33;;;;;;;-0.47;100.00;97732.25;3687799;79;44048;-18
2021/01/03 09:16:50;;;;;;;12.27;7.40;;;;;;;-0.48;100.00;97739.84;3628452;80;43959;-18
2021/01/03 09:21:59;;;;;;;12.13;6.53;;;;;;;-0.28;100.00;97746.83;3736593;79;42808;-18
2021/01/03 09:27:08;;;;;;;11.00;6.47;;;;;;;-0.30;100.00;97751.38;3657178;81;43711;-18
2021/01/03 09:32:17;;;;;;;10.63;6.47;;;;;;;-0.37;100.00;97753.62;3752857;79;44058;-18
2021/01/03 09:37:26;;;;;;;11.00;6.77;;;;;;;-0.41;100.00;97759.24;3715680;79;43795;-19
2021/01/03 09:42:42;;;;;;;11.77;7.10;;;;;;;-0.35;100.00;97757.01;3667983;80;44123;-18
2021/01/03 09:47:49;;;;;;;10.70;6.90;;;;;;;-0.33;100.00;97761.72;3696147;79;44067;-18
2021/01/03 09:53:02;;;;;;;10.73;6.63;;;;;;;-0.27;100.00;97768.84;3734718;79;43682;-18
2021/01/03 09:58:09;;;;;;;11.30;7.10;;;;;;;-0.36;100.00;97755.80;3661586;79;44069;-18
2021/01/03 10:03:18;;;;;;;12.37;7.70;;;;;;;-0.25;100.00;97764.28;3827826;77;43716;-18
2021/01/03 10:08:27;;;;;;;13.23;7.33;;;;;;;-0.32;100.00;97766.06;3737138;79;43596;-18
2021/01/03 10:13:34;;;;;;;12.17;7.13;;;;;;;-0.26;100.00;97771.39;3744911;79;43750;-19
2021/01/03 10:18:41;;;;;;;10.77;7.53;;;;;;;-0.26;100.00;97767.42;3717328;79;43711;-18
2021/01/03 10:23:55;;;;;;;12.60;7.70;;;;;;;-0.34;100.00;97763.99;3738869;79;44728;-18
2021/01/03 10:29:02;;;;;;;11.13;7.27;;;;;;;-0.28;100.00;97754.77;3707097;79;43687;-18
2021/01/03 10:34:08;;;;;;;12.03;7.37;;;;;;;-0.25;100.00;97762.96;3740619;79;43685;-19
2021/01/03 10:39:15;;;;;;;12.53;7.77;;;;;;;-0.21;100.00;97757.83;3724785;79;44118;-18
2021/01/03 10:44:23;;;;;;;12.20;7.47;;;;;;;-0.20;100.00;97762.17;3769607;79;44039;-18
2021/01/03 10:49:31;;;;;;;13.93;8.17;;;;;;;-0.22;100.00;97754.31;3731653;79;44404;-18
2021/01/03 10:54:37;;;;;;;11.27;7.50;;;;;;;-0.12;100.00;97749.71;3728449;79;43408;-18
2021/01/03 10:59:44;;;;;;;11.50;7.10;;;;;;;-0.03;100.00;97741.92;3715530;79;43690;-18
2021/01/03 11:04:51;;;;;;;13.20;7.87;;;;;;;-0.13;100.00;97741.40;3769428;79;43998;-18
2021/01/03 11:09:57;;;;;;;11.77;7.10;;;;;;;-0.27;100.00;97738.40;3728340;78;43753;-19
2021/01/03 11:15:04;;;;;;;10.23;6.77;;;;;;;-0.23;100.00;97738.55;3706439;79;44071;-19
2021/01/03 11:20:13;;;;;;;11.40;7.20;;;;;;;-0.17;100.00;97740.75;3739316;79;44098;-18
2021/01/03 11:25:19;;;;;;;11.30;7.00;;;;;;;-0.11;100.00;97739.00;3719356;79;43424;-18
2021/01/03 11:30:25;;;;;;;9.53;6.30;;;;;;;-0.02;100.00;97739.65;3722618;79;44018;-18
2021/01/03 11:35:31;;;;;;;9.30;6.30;;;;;;;-0.06;100.00;97735.52;3768960;79;43060;-18
2021/01/03 11:40:38;;;;;;;9.57;5.90;;;;;;;-0.16;100.00;97723.91;3754880;79;42791;-18
2021/01/03 11:45:43;;;;;;;9.30;5.50;;;;;;;-0.19;100.00;97725.48;3757715;79;44038;-18
2021/01/03 11:50:50;;;;;;;8.63;5.47;;;;;;;-0.19;100.00;97723.66;3732220;79;44067;-18
2021/01/03 11:55:55;;;;;;;9.60;5.53;;;;;;;-0.17;100.00;97724.86;3694918;79;43713;-18
2021/01/03 12:01:02;;;;;;;8.90;5.93;;;;;;;-0.28;100.00;97718.17;3744413;79;44066;-19
2021/01/03 12:06:08;;;;;;;9.07;6.17;;;;;;;-0.26;100.00;97718.92;3769457;79;44026;-19
2021/01/03 12:11:17;;;;;;;9.63;6.50;;;;;;;-0.29;100.00;97726.61;3768880;79;44437;-18
2021/01/03 12:16:25;;;;;;;11.33;6.77;;;;;;;-0.27;100.00;97728.67;3769748;79;43950;-19
2021/01/03 12:21:32;;;;;;;11.57;7.13;;;;;;;-0.21;100.00;97732.19;3743190;78;43309;-19
2021/01/03 12:26:41;;;;;;;13.00;7.73;;;;;;;-0.11;100.00;97737.67;3699536;79;44369;-19
2021/01/03 12:31:49;;;;;;;14.43;7.87;;;;;;;-0.17;100.00;97738.09;3738573;79;43708;-19
2021/01/03 12:37:01;;;;;;;12.83;7.77;;;;;;;-0.25;100.00;97736.49;3641022;81;43355;-18
2021/01/03 12:42:09;;;;;;;12.67;7.50;;;;;;;-0.25;100.00;97735.17;3692045;80;43303;-19
2021/01/03 12:47:15;;;;;;;15.00;8.37;;;;;;;-0.34;100.00;97733.56;3801087;77;44033;-19
2021/01/03 12:52:21;;;;;;;14.67;8.57;;;;;;;-0.28;100.00;97747.30;3810824;77;43475;-19
2021/01/03 12:57:27;;;;;;;14.53;8.43;;;;;;;-0.29;100.00;97750.43;3693798;79;44402;-19
2021/01/03 13:02:33;;;;;;;14.83;8.47;;;;;;;-0.26;100.00;97753.33;3733114;79;43737;-19
2021/01/03 13:07:39;;;;;;;13.87;8.40;;;;;;;-0.28;100.00;97746.83;3697486;79;43312;-19
2021/01/03 13:12:45;;;;;;;15.67;9.07;;;;;;;-0.27;100.00;97752.50;3699833;79;44181;-19
2021/01/03 13:17:51;;;;;;;14.60;8.60;;;;;;;-0.32;100.00;97747.53;3656911;80;44067;-19
2021/01/03 13:22:57;;;;;;;17.87;8.70;;;;;;;-0.29;100.00;97755.73;3745169;79;44051;-19
2021/01/03 13:28:03;;;;;;;12.53;7.70;;;;;;;-0.45;100.00;97744.06;3703718;79;44015;-18
2021/01/03 13:33:09;;;;;;;12.60;7.47;;;;;;;-0.46;100.00;97739.72;3706104;79;43468;-18
2021/01/03 13:38:14;;;;;;;11.40;6.77;;;;;;;-0.53;100.00;97743.77;3697936;79;44066;-19
2021/01/03 13:43:21;;;;;;;11.67;6.77;;;;;;;-0.49;100.00;97759.31;3768485;78;44056;-19
2021/01/03 13:48:27;;;;;;;12.23;6.83;;;;;;;-0.49;100.00;97753.16;3731540;79;44050;-18
2021/01/03 13:53:32;;;;;;;9.97;6.63;;;;;;;-0.52;100.00;97742.33;3742675;78;43108;-18
2021/01/03 13:58:39;;;;;;;10.27;6.40;;;;;;;-0.50;100.00;97747.50;3688502;79;44116;-19
2021/01/03 14:03:44;;;;;;;10.07;6.17;;;;;;;-0.51;100.00;97745.34;3701375;79;44121;-18
2021/01/03 14:08:54;;;;;;;11.33;6.57;;;;;;;-0.51;100.00;97761.68;3702380;79;43392;-19
2021/01/03 14:14:09;;;;;;;10.73;6.33;;;;;;;-0.49;100.00;97766.39;3699525;79;26513;-19
2021/01/03 14:19:19;;;;;;;11.13;6.93;;;;;;;-0.40;100.00;97772.84;3764884;77;26731;-18
2021/01/03 14:24:25;;;;;;;12.60;7.07;;;;;;;-0.42;100.00;97767.67;3688021;80;43708;-19
2021/01/03 14:29:31;;;;;;;12.77;7.67;;;;;;;-0.46;100.00;97767.50;3691515;79;44052;-19
2021/01/03 14:34:40;;;;;;;14.90;8.20;;;;;;;-0.47;100.00;97771.11;3688939;79;43266;-19
2021/01/03 14:39:47;;;;;;;14.57;7.70;;;;;;;-0.49;100.00;97766.39;3688101;79;43476;-19
2021/01/03 14:44:58;;;;;;;13.57;8.20;;;;;;;-0.56;100.00;97771.76;3688002;79;43672;-19
2021/01/03 14:50:13;;;;;;;16.53;8.30;;;;;;;-0.53;100.00;97768.41;3691096;79;44043;-18
2021/01/03 14:55:39;;;;;;;17.20;9.50;;;;;;;-0.46;100.00;97775.45;3672846;79;43638;-19
2021/01/03 15:00:49;;;;;;;17.17;9.13;;;;;;;-0.45;100.00;97774.95;3612491;81;44493;-18
2021/01/03 15:06:32;;;;;;;33.97;9.37;;;;;;;-0.46;100.00;97772.80;3694413;79;43994;-18
2021/01/03 15:11:53;;;;;;;21.10;9.00;;;;;;;-0.56;100.00;97770.44;3649597;79;43346;-19
2021/01/03 15:17:05;;;;;;;21.57;8.87;;;;;;;-0.57;100.00;97778.00;3755892;79;44038;-17
2021/01/03 15:22:14;;;;;;;28.37;9.93;;;;;;;-0.54;100.00;97792.34;3763273;77;43434;-18
2021/01/03 15:27:24;;;;;;;28.80;9.83;;;;;;;-0.51;100.00;97800.05;3719544;80;43542;-18
2021/01/03 15:32:33;;;;;;;34.30;10.90;;;;;;;-0.57;100.00;97803.13;3762545;78;44636;-18
2021/01/03 15:37:47;;;;;;;55.47;10.63;;;;;;;-0.51;100.00;97805.34;3751110;78;43310;-18
2021/01/03 15:43:02;;;;;;;56.47;11.77;;;;;;;-0.55;100.00;97815.78;3747479;78;44009;-18
2021/01/03 15:48:09;;;;;;;52.53;12.17;;;;;;;-0.58;100.00;97811.53;3731149;78;44037;-18
2021/01/03 15:53:16;;;;;;;58.77;11.93;;;;;;;-0.63;100.00;97807.88;3752365;78;44002;-18
2021/01/03 15:58:22;;;;;;;60.83;11.67;;;;;;;-0.59;100.00;97812.97;3727763;78;43626;-18
2021/01/03 16:03:28;;;;;;;69.60;12.73;;;;;;;-0.59;100.00;97812.51;3769708;78;43973;-18
2021/01/03 16:08:36;;;;;;;91.83;13.70;;;;;;;-0.58;100.00;97817.31;3753625;78;43714;-18
2021/01/03 16:13:42;;;;;;;55.13;12.93;;;;;;;-0.62;100.00;97821.98;3757174;78;43505;-18
2021/01/03 16:18:49;;;;;;;95.07;14.73;;;;;;;-0.56;100.00;97819.38;3700877;79;44863;-18
2021/01/03 16:24:04;;;;;;;84.60;12.47;;;;;;;-0.55;100.00;97826.37;3730028;78;44069;-18
2021/01/03 16:29:26;;;;;;;74.43;12.13;;;;;;;-0.59;100.00;97830.17;3624686;80;42889;-18
2021/01/03 16:34:39;;;;;;;76.33;13.30;;;;;;;-0.59;100.00;97835.00;3717279;79;43217;-18
2021/01/03 16:39:56;;;;;;;95.20;13.77;;;;;;;-0.57;100.00;97833.56;3713964;78;43988;-18
2021/01/03 16:45:05;;;;;;;85.43;14.07;;;;;;;-0.62;100.00;97841.33;3644323;80;43698;-19
2021/01/03 16:50:16;;;;;;;73.17;14.87;;;;;;;-0.59;100.00;97850.88;3720869;79;44086;-17
2021/01/03 16:55:26;;;;;;;44.97;12.40;;;;;;;-0.57;100.00;97848.11;3706549;79;44080;-18
2021/01/03 17:00:48;;;;;;;91.93;13.67;;;;;;;-0.59;100.00;97852.66;3797999;77;44505;-18
2021/01/03 17:05:56;;;;;;;50.20;13.83;;;;;;;-0.57;100.00;97856.88;3736867;79;44087;-18
2021/01/03 17:11:06;;;;;;;50.57;12.77;;;;;;;-0.49;100.00;97853.25;3706294;79;44118;-18
2021/01/03 17:16:15;;;;;;;99.83;13.60;;;;;;;-0.47;100.00;97857.11;3715304;79;44108;-18
2021/01/03 17:21:29;;;;;;;95.77;17.23;;;;;;;-0.44;100.00;97863.98;3706207;79;44542;-18
2021/01/03 17:26:43;;;;;;;101.90;15.27;;;;;;;-0.40;100.00;97868.12;3691727;79;43338;-19
2021/01/03 17:31:55;;;;;;;119.43;15.83;;;;;;;-0.40;100.00;97866.30;3652419;80;44076;-19
2021/01/03 17:37:07;;;;;;;100.53;14.87;;;;;;;-0.40;100.00;97866.30;3633225;80;43229;-18
2021/01/03 17:42:14;;;;;;;88.90;13.80;;;;;;;-0.39;100.00;97868.00;3693543;79;43398;-18
2021/01/03 17:47:32;;;;;;;128.20;15.73;;;;;;;-0.38;100.00;97877.63;3690928;79;44057;-19
2021/01/03 17:52:41;;;;;;;72.23;13.67;;;;;;;-0.32;100.00;97884.30;3693684;79;42866;-19
2021/01/03 17:57:52;;;;;;;204.47;18.20;;;;;;;-0.27;100.00;97880.02;3697803;79;44038;-19
2021/01/03 18:03:01;;;;;;;120.73;14.60;;;;;;;-0.27;100.00;97883.98;3705920;79;43363;-19
2021/01/03 18:08:08;;;;;;;205.87;17.97;;;;;;;-0.38;100.00;97887.39;3702319;79;44059;-18
2021/01/03 18:13:15;;;;;;;160.27;15.20;;;;;;;-0.36;100.00;97884.16;3701165;80;43684;-19
2021/01/03 18:18:22;;;;;;;101.73;15.27;;;;;;;-0.45;100.00;97881.67;3667946;80;44506;-19
2021/01/03 18:23:28;;;;;;;73.60;12.97;;;;;;;-0.41;100.00;97879.66;3695774;79;43693;-18
2021/01/03 18:28:34;;;;;;;98.43;13.13;;;;;;;-0.40;100.00;97886.15;3665445;80;44435;-18
2021/01/03 18:33:45;;;;;;;103.87;12.97;;;;;;;-0.45;100.00;97882.99;3806717;77;43530;-18
2021/01/03 18:38:50;;;;;;;93.53;11.83;;;;;;;-0.47;100.00;97890.18;3706321;79;43133;-19
2021/01/03 18:43:57;;;;;;;65.97;12.30;;;;;;;-0.50;100.00;97883.77;3736847;79;44128;-17
2021/01/03 18:49:03;;;;;;;62.30;11.93;;;;;;;-0.51;100.00;97892.66;3656947;80;43361;-18
2021/01/03 18:54:10;;;;;;;67.57;10.77;;;;;;;-0.53;100.00;97905.17;3729370;79;44162;-18
2021/01/03 18:59:18;;;;;;;82.53;13.07;;;;;;;-0.50;100.00;97893.89;3710408;79;44361;-18
2021/01/03 19:04:25;;;;;;;59.90;13.07;;;;;;;-0.54;100.00;97896.86;3700163;79;43433;-18
2021/01/03 19:09:32;;;;;;;78.00;13.00;;;;;;;-0.55;100.00;97897.31;3631864;80;44033;-18
2021/01/03 19:14:39;;;;;;;94.30;14.90;;;;;;;-0.52;100.00;97908.16;3694719;80;44108;-19
2021/01/03 19:19:46;;;;;;;81.70;13.33;;;;;;;-0.52;100.00;97913.45;3694441;79;44047;-19
2021/01/03 19:24:52;;;;;;;44.90;11.20;;;;;;;-0.49;100.00;97918.08;3701240;79;43722;-19
2021/01/03 19:29:58;;;;;;;44.33;10.77;;;;;;;-0.45;100.00;97925.33;3706243;80;42970;-19
2021/01/03 19:35:07;;;;;;;44.37;11.57;;;;;;;-0.38;100.00;97932.38;3707247;79;43716;-19
2021/01/03 19:40:15;;;;;;;43.47;11.03;;;;;;;-0.32;100.00;97938.11;3733880;79;43694;-19
2021/01/03 19:45:21;;;;;;;34.50;10.33;;;;;;;-0.36;100.00;97936.61;3713498;79;43668;-19
2021/01/03 19:50:28;;;;;;;43.97;10.50;;;;;;;-0.37;100.00;97945.50;3737189;79;44093;-19
2021/01/03 19:55:34;;;;;;;38.03;10.13;;;;;;;-0.33;100.00;97950.10;3712260;79;44062;-19
2021/01/03 20:00:40;;;;;;;26.23;9.57;;;;;;;-0.34;100.00;97953.23;3731853;79;44066;-19
2021/01/03 20:05:46;;;;;;;32.63;11.23;;;;;;;-0.35;100.00;97951.54;3706058;80;44554;-19
2021/01/03 20:10:52;;;;;;;25.80;9.53;;;;;;;-0.34;100.00;97954.56;3705909;80;44353;-19
2021/01/03 20:15:59;;;;;;;22.80;9.47;;;;;;;-0.30;100.00;97964.95;3717005;79;43353;-19
2021/01/03 20:21:10;;;;;;;23.00;9.10;;;;;;;-0.34;100.00;97966.47;3722292;79;43360;-19
2021/01/03 20:26:15;;;;;;;21.20;8.77;;;;;;;-0.37;100.00;97966.67;3695222;79;44066;-19
2021/01/03 20:31:23;;;;;;;20.10;8.30;;;;;;;-0.32;100.00;97965.90;3637590;81;44061;-19
2021/01/03 20:36:29;;;;;;;16.50;7.90;;;;;;;-0.31;100.00;97968.05;3664360;80;44017;-19
2021/01/03 20:41:35;;;;;;;17.77;7.73;;;;;;;-0.32;100.00;97979.13;3699545;80;43991;-19
2021/01/03 20:46:41;;;;;;;13.30;7.10;;;;;;;-0.29;100.00;97982.04;3682632;80;43354;-19
2021/01/03 20:51:46;;;;;;;15.07;6.70;;;;;;;-0.32;100.00;97979.13;3785649;77;44079;-19
2021/01/03 20:56:53;;;;;;;12.73;6.77;;;;;;;-0.30;100.00;97981.66;3783559;77;44599;-19
2021/01/03 21:02:00;;;;;;;14.47;6.67;;;;;;;-0.26;100.00;97984.95;3690118;80;44572;-19
2021/01/03 21:07:08;;;;;;;14.20;7.67;;;;;;;-0.29;100.00;97983.36;3725503;79;43984;-19
2021/01/03 21:12:17;;;;;;;13.17;7.10;;;;;;;-0.31;100.00;97990.55;3706073;79;44038;-19
2021/01/03 21:17:23;;;;;;;16.17;7.40;;;;;;;-0.30;100.00;97987.45;3688981;80;44437;-19
2021/01/03 21:22:31;;;;;;;15.20;6.93;;;;;;;-0.26;100.00;97994.21;3698117;79;43726;-19
2021/01/03 21:28:11;;;;;;;14.43;7.30;;;;;;;-0.25;100.00;97997.23;3728945;79;44554;-19
2021/01/03 21:33:22;;;;;;;16.00;7.43;;;;;;;-0.22;100.00;97998.36;3669449;79;42947;-19
2021/01/03 21:38:36;;;;;;;14.23;6.60;;;;;;;-0.23;100.00;97999.30;3706776;79;43723;-19
2021/01/03 21:44:16;;;;;;;12.67;6.47;;;;;;;-0.24;100.00;97998.93;3723190;79;43472;-19
2021/01/03 21:49:25;;;;;;;14.27;6.67;;;;;;;-0.16;100.00;97998.80;3683029;79;44090;-20
2021/01/03 21:54:42;;;;;;;11.97;6.67;;;;;;;-0.17;100.00;98000.20;3732298;78;44413;-19
2021/01/03 22:00:01;;;;;;;14.77;6.90;;;;;;;-0.19;100.00;98000.80;3789307;78;43650;-19
2021/01/03 22:05:52;;;;;;;10.97;6.50;;;;;;;-0.20;100.00;98003.08;3718681;79;26758;-19
2021/01/03 22:11:53;;;;;;;10.20;5.90;;;;;;;-0.23;100.00;98001.47;3729984;79;44169;-19
2021/01/03 22:17:02;;;;;;;10.67;6.17;;;;;;;-0.23;100.00;98002.79;3627895;81;43296;-19
2021/01/03 22:22:23;;;;;;;11.60;6.20;;;;;;;-0.22;100.00;98011.59;3689041;80;43135;-19
2021/01/03 22:27:37;;;;;;;10.50;5.90;;;;;;;-0.20;100.00;98013.67;3738041;79;43302;-19
2021/01/03 22:32:46;;;;;;;11.43;6.23;;;;;;;-0.24;100.00;98009.52;3704659;79;43713;-19
2021/01/03 22:38:14;;;;;;;11.10;5.97;;;;;;;-0.23;100.00;98015.19;3703732;79;43095;-19
2021/01/03 22:43:31;;;;;;;10.67;5.97;;;;;;;-0.26;100.00;98022.01;3706620;80;44166;-19
2021/01/03 22:48:46;;;;;;;9.00;5.30;;;;;;;-0.21;100.00;98011.48;3740971;79;43494;-19
2021/01/03 22:53:56;;;;;;;10.07;6.00;;;;;;;-0.21;100.00;98019.91;3762184;78;44607;-20
2021/01/03 22:59:51;;;;;;;10.37;6.00;;;;;;;-0.26;100.00;98019.36;3816923;77;43021;-20
2021/01/03 23:05:01;;;;;;;12.07;6.40;;;;;;;-0.20;100.00;98028.23;3755115;77;44065;-19
2021/01/03 23:10:11;;;;;;;10.77;6.23;;;;;;;-0.27;100.00;98021.63;3707909;80;43750;-19
2021/01/03 23:15:21;;;;;;;11.30;6.40;;;;;;;-0.23;100.00;98027.94;3703662;79;43491;-19
2021/01/03 23:20:30;;;;;;;12.70;6.53;;;;;;;-0.28;100.00;98023.91;3799088;77;44067;-19
2021/01/03 23:25:39;;;;;;;12.00;6.47;;;;;;;-0.20;100.00;98017.64;3778864;77;44028;-19
2021/01/03 23:30:50;;;;;;;14.57;7.13;;;;;;;-0.24;100.00;98016.14;3790073;78;43378;-19
2021/01/03 23:35:59;;;;;;;13.67;6.77;;;;;;;-0.26;100.00;98013.61;3790631;78;42985;-19
2021/01/03 23:41:09;;;;;;;14.17;6.90;;;;;;;-0.19;100.00;98020.17;3733573;78;43348;-20